WetterOnline ( https://www.wetteronline.de )

Wetter aktuell Reesmoor

Aktuelles Wetter: Itzehoe (26m)

6-stündlich | Neueste Meldungen
Ortszeit Temperatur Wetter
Di, 18.05. 8:00 10.4° C bewölkt
Di, 18.05. 2:00 10.0° C bedeckt
Mo, 17.05. 20:00 13.4° C bewölkt
Mo, 17.05. 14:00 14.9° C leicht bewölkt
Mo, 17.05. 8:00 10.0° C fast wolkenlos
Mo, 17.05. 2:00 6.7° C bedeckt
So, 16.05. 20:00 13.9° C wolkenlos
So, 16.05. 14:00 13.7° C wolkig
Ortszeit Temperatur Wetter
Di, 18.05. 11:00 12.1° C bedeckt
Di, 18.05. 10:50 12.1° C bedeckt
Di, 18.05. 10:40 12.1° C bedeckt
Di, 18.05. 10:30 11.7° C bedeckt
Di, 18.05. 10:20 11.7° C bedeckt
Di, 18.05. 10:10 11.4° C bedeckt
Di, 18.05. 10:00 11.4° C Sprühregen
Di, 18.05. 9:30 11.3° C bewölkt
Di, 18.05. 9:00 11.8° C wolkig
Di, 18.05. 8:30 10.4° C bewölkt
Di, 18.05. 8:00 10.4° C bewölkt
Ortszeit Relative Feuchte Sichtweite
Di, 18.05. 8:00 84% 25 km
Di, 18.05. 2:00 85% 25 km
Mo, 17.05. 20:00 76% 45 km
Mo, 17.05. 14:00 68% 30 km
Mo, 17.05. 8:00 87% 21 km
Mo, 17.05. 2:00 96% 6 km
So, 16.05. 20:00 71% >70 km
So, 16.05. 14:00 78% 55 km
Ortszeit Relative Feuchte Sichtweite
Di, 18.05. 11:00 79% 35 km
Di, 18.05. 10:50 79% -
Di, 18.05. 10:40 79% -
Di, 18.05. 10:30 81% 28 km
Di, 18.05. 10:20 81% -
Di, 18.05. 10:10 83% -
Di, 18.05. 10:00 83% 20 km
Di, 18.05. 9:30 81% 26 km
Di, 18.05. 9:00 82% 24 km
Di, 18.05. 8:30 85% 23 km
Di, 18.05. 8:00 84% 25 km
Ortszeit Niederschlagsmenge Niederschlagsart
Di, 18.05. 8:00 0.1 l/m2 in 12 Std. -
Di, 18.05. 2:00 0.1 l/m2 in 6 Std. Regen
Mo, 17.05. 20:00 0.5 l/m2 in 12 Std. Regen
Mo, 17.05. 14:00 0.5 l/m2 in 6 Std. Regen
Mo, 17.05. 8:00 0.5 l/m2 in 12 Std. -
Mo, 17.05. 2:00 0.5 l/m2 in 6 Std. Regen
So, 16.05. 20:00 3 l/m2 in 12 Std. Regen
So, 16.05. 14:00 2 l/m2 in 6 Std. Regen
Ortszeit Niederschlagsmenge Niederschlagsart
Di, 18.05. 11:00 0.1 l/m2 in 1 Std. Regen
Di, 18.05. 10:50 keine Meldung -
Di, 18.05. 10:40 keine Meldung -
Di, 18.05. 10:30 0.1 l/m2 in 1 Std. Schneeregen
Di, 18.05. 10:20 keine Meldung -
Di, 18.05. 10:10 keine Meldung -
Di, 18.05. 10:00 0.1 l/m2 in 1 Std. Regen
Di, 18.05. 9:30 0.0 l/m2 in 1 Std. -
Di, 18.05. 9:00 0.0 l/m2 in 1 Std. -
Di, 18.05. 8:30 0.0 l/m2 in 1 Std. -
Di, 18.05. 8:00 0.0 l/m2 in 1 Std. -
Ortszeit Stärke Spitze Richtung
km/h Bft. km/h Grad Sektor
Di, 18.05. 8:00 9 2 19 230° SW
Di, 18.05. 2:00 6 1 19 300° NW
Mo, 17.05. 20:00 2 1 19 300° NW
Mo, 17.05. 14:00 9 2 24 210° SW
Mo, 17.05. 8:00 2 1 6 190° S
Mo, 17.05. 2:00 0 0 18 - -
So, 16.05. 20:00 6 1 26 230° SW
So, 16.05. 14:00 7 2 22 150° SO
Ortszeit Stärke Spitze Richtung
km/h Bft. km/h Grad Sektor
Di, 18.05. 11:00 11 2 22 230° SW
Di, 18.05. 10:50 11 2 - 230° SW
Di, 18.05. 10:40 11 2 - 230° SW
Di, 18.05. 10:30 11 2 18 230° SW
Di, 18.05. 10:20 11 2 - 230° SW
Di, 18.05. 10:10 9 2 - 230° SW
Di, 18.05. 10:00 9 2 19 230° SW
Di, 18.05. 9:30 7 2 18 220° SW
Di, 18.05. 9:00 7 2 14 210° SW
Di, 18.05. 8:30 7 2 15 220° SW
Di, 18.05. 8:00 9 2 19 230° SW
Ortszeit Untergrenze Bedeckung Gattung
total tief tief mittel hoch
Di, 18.05. 8:00 1290 m 7/8 8/8 - - -
Di, 18.05. 2:00 420 m 8/8 8/8 - - -
Mo, 17.05. 20:00 1800 m 7/8 7/8 - - -
Mo, 17.05. 14:00 630 m 5/8 2/8 - - -
Mo, 17.05. 8:00 6600 m 1/8 1/8 - - -
Mo, 17.05. 2:00 4200 m 8/8 8/8 - - -
So, 16.05. 20:00 - 0/8 0/8 - - -
So, 16.05. 14:00 1410 m 7/8 1/8 - - -
Ortszeit Bedeckungsgrad in Achtel und Wolkenuntergrenze
Di, 18.05. 11:00 2(450m) 7(1140m) 8(1500m)
Di, 18.05. 10:50 2(450m) 7(1140m) 8(1500m)
Di, 18.05. 10:40 3(480m) 7(930m) 8(1500m)
Di, 18.05. 10:30 4(450m) 7(810m) 8(1500m)
Di, 18.05. 10:20 4(450m) 7(810m) 8(1500m)
Di, 18.05. 10:10 3(450m) 7(900m) 8(1500m)
Di, 18.05. 10:00 4(450m) 6(1200m) 8(1440m)
Di, 18.05. 9:30 3(420m) 6(1170m) 7(1500m)
Di, 18.05. 9:00 4(1500m) 6(1500m)
Di, 18.05. 8:30 3(1140m) 8(1410m) 7(1500m)
Di, 18.05. 8:00 7(1290m) 8(1380m)
Ortszeit Luftdruck NN (hPa) Tendenz (hPa in 3 Std.)
Di, 18.05. 8:00 1009 + 1,0
Di, 18.05. 2:00 1007 + 1,5
Mo, 17.05. 20:00 1004 + 1,0
Mo, 17.05. 14:00 1002 + 0,6
Mo, 17.05. 8:00 1001 + 0,7
Mo, 17.05. 2:00 1000 0,0
So, 16.05. 20:00 1000 - 0,9
So, 16.05. 14:00 1000 - 0,4
Ortszeit Luftdruck NN (hPa) Tendenz (hPa in 3 Std.)
Di, 18.05. 11:00 1010 + 0,9
Di, 18.05. 10:50 1010 keine Meldung
Di, 18.05. 10:40 1010 keine Meldung
Di, 18.05. 10:30 1010 + 1,1
Di, 18.05. 10:20 1010 keine Meldung
Di, 18.05. 10:10 1010 keine Meldung
Di, 18.05. 10:00 1010 + 1,2
Di, 18.05. 9:30 1010 + 1,2
Di, 18.05. 9:00 1010 + 1,2
Di, 18.05. 8:30 1010 + 1,1
Di, 18.05. 8:00 1009 + 1,0
Ortszeit Schneehöhe (cm)
Di, 18.05. 8:00 -
Di, 18.05. 2:00 -
Mo, 17.05. 20:00 -
Mo, 17.05. 14:00 -
Mo, 17.05. 8:00 -
Mo, 17.05. 2:00 -
So, 16.05. 20:00 -
So, 16.05. 14:00 -
Ortszeit Schneehöhe (cm)
Di, 18.05. 11:00 -
Di, 18.05. 10:50 -
Di, 18.05. 10:40 -
Di, 18.05. 10:30 -
Di, 18.05. 10:20 -
Di, 18.05. 10:10 -
Di, 18.05. 10:00 -
Di, 18.05. 9:30 -
Di, 18.05. 9:00 -
Di, 18.05. 8:30 -
Di, 18.05. 8:00 -
Link zu dieser Seite / Seite empfehlen

Das Wetter in ...